createdAt,value
2019-03-12T00:00:03.379Z,86.1
2019-03-12T00:01:03.506Z,87.2
2019-03-12T00:02:03.229Z,86.3
2019-03-12T00:03:03.588Z,86.8
2019-03-12T00:04:03.047Z,86.1
2019-03-12T00:05:03.717Z,88.4
2019-03-12T00:06:03.283Z,87
2019-03-12T00:07:03.687Z,87.9
2019-03-12T00:08:03.475Z,89.3
2019-03-12T00:09:03.089Z,87.2
2019-03-12T00:10:03.383Z,89.6
2019-03-12T00:11:03.508Z,88.2
2019-03-12T00:12:03.230Z,88.4
2019-03-12T00:13:03.724Z,89.1
2019-03-12T00:14:03.576Z,89.3
2019-03-12T00:15:03.405Z,88.6
2019-03-12T00:16:03.441Z,89.1
2019-03-12T00:17:03.506Z,87
2019-03-12T00:18:03.321Z,89.1
2019-03-12T00:19:03.144Z,87.5
2019-03-12T00:20:03.072Z,87.2
2019-03-12T00:21:03.346Z,89.1
2019-03-12T00:22:03.166Z,88.6
2019-03-12T00:23:03.305Z,89.1
2019-03-12T00:24:02.966Z,88.6
2019-03-12T00:25:03.419Z,88.2
2019-03-12T00:26:03.961Z,88.4
2019-03-12T00:27:03.245Z,88.9
2019-03-12T00:28:03.180Z,89.6
2019-03-12T00:29:03.214Z,88.4
2019-03-12T00:30:03.889Z,88.4
2019-03-12T00:31:03.256Z,87.7
2019-03-12T00:32:02.832Z,88.2
2019-03-12T00:33:03.085Z,87.7
2019-03-12T00:34:03.203Z,88.6
2019-03-12T00:35:02.906Z,90.3
2019-03-12T00:36:03.319Z,87.9
2019-03-12T00:37:03.376Z,89.6
2019-03-12T00:38:02.861Z,89.8
2019-03-12T00:39:03.214Z,88.9
2019-03-12T00:40:03.176Z,90.5
2019-03-12T00:41:02.948Z,89.3
2019-03-12T00:42:02.971Z,90.7
2019-03-12T00:43:03.231Z,90.7
2019-03-12T00:44:03.787Z,90.7
2019-03-12T00:45:03.200Z,91
2019-03-12T00:46:02.765Z,91.9
2019-03-12T00:47:03.221Z,91.7
2019-03-12T00:48:03.724Z,92.6
2019-03-12T00:49:03.972Z,92.1
2019-03-12T00:50:03.247Z,91.9
2019-03-12T00:51:03.965Z,93.1
2019-03-12T00:52:02.827Z,91.7
2019-03-12T00:53:03.731Z,90.7
2019-03-12T00:54:03.228Z,89.1
2019-03-12T00:55:03.884Z,89.6
2019-03-12T00:56:03.850Z,89.3
2019-03-12T00:57:03.928Z,88.4
2019-03-12T00:58:03.721Z,89.3
2019-03-12T00:59:03.670Z,89.3
2019-03-12T01:00:03.521Z,88.6
2019-03-12T01:01:03.519Z,90.5
2019-03-12T01:02:03.447Z,90
2019-03-12T01:03:03.128Z,90.3
2019-03-12T01:04:03.205Z,88.9
2019-03-12T01:05:03.978Z,88.4
2019-03-12T01:06:03.517Z,86.5
2019-03-12T01:07:03.837Z,87.2
2019-03-12T01:08:03.083Z,86.5
2019-03-12T01:09:03.238Z,85.4
2019-03-12T01:10:03.512Z,86.1
2019-03-12T01:11:03.498Z,83
2019-03-12T01:12:03.454Z,83
2019-03-12T01:13:03.596Z,84
2019-03-12T01:14:03.029Z,83.3
2019-03-12T01:15:03.292Z,84.4
2019-03-12T01:16:03.408Z,84
2019-03-12T01:17:03.190Z,83.7
2019-03-12T01:18:03.204Z,83
2019-03-12T01:19:03.240Z,85.1
2019-03-12T01:20:03.064Z,83.5
2019-03-12T01:21:03.147Z,82.3
2019-03-12T01:22:03.372Z,83
2019-03-12T01:23:03.400Z,82.6
2019-03-12T01:24:03.310Z,84.2
2019-03-12T01:25:03.092Z,83.7
2019-03-12T01:26:03.099Z,84
2019-03-12T01:27:02.890Z,84.2
2019-03-12T01:28:02.999Z,83.5
2019-03-12T01:29:03.102Z,82.6
2019-03-12T01:30:03.052Z,82.8
2019-03-12T01:31:03.297Z,82.8
2019-03-12T01:32:02.830Z,83.7
2019-03-12T01:33:03.092Z,82.8
2019-03-12T01:34:03.150Z,83.3
2019-03-12T01:35:03.206Z,85.1
2019-03-12T01:36:02.871Z,82.8
2019-03-12T01:37:03.101Z,85.1
2019-03-12T01:38:03.363Z,85.1
2019-03-12T01:39:02.598Z,87.2
2019-03-12T01:40:03.049Z,86.5
2019-03-12T01:41:03.126Z,87.9
2019-03-12T01:42:03.396Z,86.8
2019-03-12T01:43:03.136Z,88.9
2019-03-12T01:44:03.093Z,87.5
2019-03-12T01:45:03.200Z,87.2
2019-03-12T01:46:03.857Z,87
2019-03-12T01:47:03.948Z,88.4
2019-03-12T01:48:03.070Z,87.2
2019-03-12T01:49:03.132Z,87.7
2019-03-12T01:50:03.918Z,87.7
2019-03-12T01:51:03.161Z,89.6
2019-03-12T01:52:03.396Z,88.6
2019-03-12T01:53:03.621Z,89.6
2019-03-12T01:54:03.732Z,89.8
2019-03-12T01:55:03.765Z,90
2019-03-12T01:56:03.615Z,91
2019-03-12T01:57:03.469Z,90
2019-03-12T01:58:03.612Z,91
2019-03-12T01:59:03.699Z,89.8
2019-03-12T02:00:03.909Z,89.8
2019-03-12T02:01:03.295Z,90
2019-03-12T02:02:03.919Z,89.3
2019-03-12T02:03:03.305Z,90.7
2019-03-12T02:04:03.679Z,91
2019-03-12T02:05:03.669Z,91.2
2019-03-12T02:06:03.638Z,91.9
2019-03-12T02:07:03.226Z,91.9
2019-03-12T02:08:03.373Z,92.1
2019-03-12T02:09:03.284Z,90.5
2019-03-12T02:10:03.323Z,92.8
2019-03-12T02:11:03.338Z,92.6
2019-03-12T02:12:03.490Z,93.5
2019-03-12T02:13:03.461Z,94
2019-03-12T02:14:03.169Z,92.4
2019-03-12T02:15:03.643Z,93.3
2019-03-12T02:16:03.200Z,92.4
2019-03-12T02:17:03.169Z,92.6
2019-03-12T02:18:03.445Z,91.2
2019-03-12T02:19:03.228Z,93.3
2019-03-12T02:20:02.905Z,91.9
2019-03-12T02:21:02.930Z,92.6
2019-03-12T02:22:03.118Z,92.1
2019-03-12T02:23:03.014Z,93.3
2019-03-12T02:24:03.251Z,93.3
2019-03-12T02:25:03.196Z,92.1
2019-03-12T02:26:02.985Z,92.8
2019-03-12T02:27:03.805Z,94.5
2019-03-12T02:28:03.053Z,93.5
2019-03-12T02:29:02.210Z,95.6
2019-03-12T02:30:03.117Z,96.1
2019-03-12T02:31:02.825Z,94.7
2019-03-12T02:32:03.897Z,96.6
2019-03-12T02:33:02.949Z,95.9
2019-03-12T02:34:02.967Z,94.9
2019-03-12T02:35:03.028Z,94.9
2019-03-12T02:36:03.113Z,93.3
2019-03-12T02:37:03.040Z,94
2019-03-12T02:38:03.604Z,93.8
2019-03-12T02:39:03.809Z,93.5
2019-03-12T02:40:03.816Z,94.2
2019-03-12T02:41:02.588Z,93.5
2019-03-12T02:42:03.363Z,93.5
2019-03-12T02:43:03.605Z,93.3
2019-03-12T02:44:03.333Z,92.4
2019-03-12T02:45:03.479Z,92.4
2019-03-12T02:46:03.229Z,91.2
2019-03-12T02:47:03.637Z,92.6
2019-03-12T02:48:03.917Z,90.7
2019-03-12T02:49:03.975Z,91.7
2019-03-12T02:50:03.626Z,90.5
2019-03-12T02:51:02.941Z,93.1
2019-03-12T02:52:03.335Z,90.7
2019-03-12T02:53:03.174Z,93.1
2019-03-12T02:54:03.381Z,92.8
2019-03-12T02:55:03.600Z,92.4
2019-03-12T02:56:03.386Z,94.7
2019-03-12T02:57:03.407Z,92.1
2019-03-12T02:58:03.294Z,94.2
2019-03-12T02:59:03.421Z,93.1
2019-03-12T03:00:03.335Z,94.2
2019-03-12T03:01:03.259Z,95.4
2019-03-12T03:02:02.924Z,93.3
2019-03-12T03:03:03.177Z,95.2
2019-03-12T03:04:03.069Z,94.2
2019-03-12T03:05:03.658Z,94
2019-03-12T03:06:02.914Z,93.5
2019-03-12T03:07:02.889Z,93.8
2019-03-12T03:08:03.568Z,94
2019-03-12T03:09:03.740Z,94.5
2019-03-12T03:10:03.189Z,93.8
2019-03-12T03:11:02.860Z,95.4
2019-03-12T03:12:02.978Z,94.9
2019-03-12T03:13:02.946Z,94.9
2019-03-12T03:14:03.758Z,94.2
2019-03-12T03:15:03.127Z,95.2
2019-03-12T03:16:03.890Z,96.1
2019-03-12T03:17:03.050Z,95.4
2019-03-12T03:18:03.870Z,94.9
2019-03-12T03:19:03.719Z,94.9
2019-03-12T03:20:03.632Z,94.9
2019-03-12T03:21:04.034Z,96.8
2019-03-12T03:22:03.877Z,95.2
2019-03-12T03:23:03.367Z,95.6
2019-03-12T03:24:03.792Z,96.1
2019-03-12T03:25:03.687Z,95.6
2019-03-12T03:26:04.090Z,95.2
2019-03-12T03:27:03.132Z,95.6
2019-03-12T03:28:03.861Z,94
2019-03-12T03:29:03.514Z,95.2
2019-03-12T03:30:03.302Z,95.2
2019-03-12T03:31:04.102Z,94.5
2019-03-12T03:32:03.840Z,94.9
2019-03-12T03:33:03.604Z,95.2
2019-03-12T03:34:03.356Z,95.4
2019-03-12T03:35:03.653Z,94.5
2019-03-12T03:36:03.381Z,94.5
2019-03-12T03:37:03.155Z,94.7
2019-03-12T03:38:03.127Z,93.3
2019-03-12T03:39:03.459Z,93.8
2019-03-12T03:40:03.255Z,93.1
2019-03-12T03:41:03.550Z,93.5
2019-03-12T03:42:03.063Z,93.1
2019-03-12T03:43:03.012Z,93.1
2019-03-12T03:44:03.182Z,93.8
2019-03-12T03:45:03.275Z,94.5
2019-03-12T03:46:03.418Z,95.2
2019-03-12T03:47:02.840Z,95.2
2019-03-12T03:48:03.057Z,95.6
2019-03-12T03:49:02.962Z,94
2019-03-12T03:50:02.750Z,95.9
2019-03-12T03:51:02.953Z,95.2
2019-03-12T03:52:03.381Z,96.8
2019-03-12T03:53:03.807Z,94
2019-03-12T03:54:03.024Z,96.1
2019-03-12T03:55:02.961Z,94.2
2019-03-12T03:56:03.833Z,93.5
2019-03-12T03:57:03.619Z,92.8
2019-03-12T03:58:03.564Z,92.6
2019-03-12T03:59:03.938Z,92.4
2019-03-12T04:00:03.479Z,93.5
2019-03-12T04:01:03.937Z,92.4
2019-03-12T04:02:03.656Z,93.1
2019-03-12T04:03:03.022Z,91.4
2019-03-12T04:04:03.629Z,91.7
2019-03-12T04:05:03.611Z,91.9
2019-03-12T04:06:03.815Z,91.7
2019-03-12T04:07:03.665Z,90.5
2019-03-12T04:08:03.464Z,91
2019-03-12T04:09:03.240Z,90.5
2019-03-12T04:10:03.375Z,89.8
2019-03-12T04:11:03.190Z,88.4
2019-03-12T04:12:03.461Z,89.8
2019-03-12T04:13:03.186Z,87.9
2019-03-12T04:14:03.079Z,88.9
2019-03-12T04:15:03.504Z,88.6
2019-03-12T04:16:03.334Z,90.5
2019-03-12T04:17:02.935Z,87.9
2019-03-12T04:18:03.200Z,90.3
2019-03-12T04:19:03.450Z,89.8
2019-03-12T04:20:03.624Z,89.6
2019-03-12T04:21:03.062Z,90.3
2019-03-12T04:22:03.120Z,88.6
2019-03-12T04:23:03.348Z,88.2
2019-03-12T04:24:03.081Z,89.3
2019-03-12T04:25:02.908Z,88.9
2019-03-12T04:26:03.242Z,87.7
2019-03-12T04:27:03.563Z,88.4
2019-03-12T04:28:02.892Z,88.6
2019-03-12T04:29:02.931Z,87.2
2019-03-12T04:30:03.374Z,88.9
2019-03-12T04:31:03.364Z,89.3
2019-03-12T04:32:03.065Z,89.3
2019-03-12T04:33:03.024Z,89.8
2019-03-12T04:34:03.144Z,89.3
2019-03-12T04:35:03.904Z,90
2019-03-12T04:36:03.063Z,90
2019-03-12T04:37:02.852Z,91
2019-03-12T04:38:02.605Z,91.4
2019-03-12T04:39:03.431Z,91.9
2019-03-12T04:40:03.913Z,91.7
2019-03-12T04:41:03.301Z,93.1
2019-03-12T04:42:03.422Z,92.1
2019-03-12T04:43:03.912Z,92.6
2019-03-12T04:44:03.601Z,93.3
2019-03-12T04:45:03.851Z,92.6
2019-03-12T04:46:03.535Z,91.7
2019-03-12T04:47:03.770Z,93.1
2019-03-12T04:48:03.291Z,90.7
2019-03-12T04:49:03.566Z,90.7
2019-03-12T04:50:03.626Z,91.9
2019-03-12T04:51:03.591Z,90.5
2019-03-12T04:52:03.465Z,91.9
2019-03-12T04:53:03.497Z,88.9
2019-03-12T04:54:03.121Z,90.7
2019-03-12T04:55:03.615Z,90.3
2019-03-12T04:56:03.458Z,89.1
2019-03-12T04:57:03.216Z,90.7
2019-03-12T04:58:03.449Z,90
2019-03-12T04:59:03.422Z,90.5
2019-03-12T05:00:03.770Z,90.5
2019-03-12T05:01:03.253Z,90
2019-03-12T05:02:03.394Z,90
2019-03-12T05:03:03.041Z,89.3
2019-03-12T05:04:03.117Z,88.9
2019-03-12T05:05:03.275Z,90
2019-03-12T05:06:03.067Z,91.4
2019-03-12T05:07:03.323Z,89.8
2019-03-12T05:08:03.081Z,91.2
2019-03-12T05:09:03.255Z,93.1
2019-03-12T05:10:03.088Z,93.5
2019-03-12T05:11:03.193Z,93.5
2019-03-12T05:12:03.138Z,93.8
2019-03-12T05:13:02.891Z,93.3
2019-03-12T05:14:03.022Z,93.3
2019-03-12T05:15:02.937Z,95.6
2019-03-12T05:16:02.950Z,92.6
2019-03-12T05:17:02.982Z,92.8
2019-03-12T05:18:03.761Z,93.1
2019-03-12T05:19:02.690Z,92.8
2019-03-12T05:20:03.889Z,95.2
2019-03-12T05:21:03.575Z,94.7
2019-03-12T05:22:02.734Z,94.2
2019-03-12T05:23:03.783Z,94.9
2019-03-12T05:24:03.691Z,95.2
2019-03-12T05:25:03.572Z,94.2
2019-03-12T05:26:03.419Z,95.2
2019-03-12T05:27:03.758Z,94.7
2019-03-12T05:28:03.758Z,96.6
2019-03-12T05:29:03.595Z,94.2
2019-03-12T05:30:03.431Z,93.3
2019-03-12T05:31:03.506Z,95.6
2019-03-12T05:32:03.445Z,94.5
2019-03-12T05:33:03.246Z,96.1
2019-03-12T05:34:03.332Z,94.9
2019-03-12T05:35:03.544Z,95.4
2019-03-12T05:36:03.356Z,95.2
2019-03-12T05:37:03.413Z,97.3
2019-03-12T05:38:03.348Z,94.5
2019-03-12T05:39:03.556Z,95.2
2019-03-12T05:40:03.437Z,96.1
2019-03-12T05:41:03.036Z,94.7
2019-03-12T05:42:03.234Z,95.4
2019-03-12T05:43:03.166Z,96.1
2019-03-12T05:44:03.147Z,95.9
2019-03-12T05:45:03.527Z,96.6
2019-03-12T05:46:03.159Z,96.3
2019-03-12T05:47:02.715Z,95.9
2019-03-12T05:48:02.760Z,96.1
2019-03-12T05:49:02.994Z,96.6
2019-03-12T05:50:02.852Z,97
2019-03-12T05:51:03.259Z,96.1
2019-03-12T05:52:03.100Z,96.8
2019-03-12T05:53:02.959Z,96.3
2019-03-12T05:54:02.783Z,97
2019-03-12T05:55:03.047Z,96.1
2019-03-12T05:56:03.260Z,95.6
2019-03-12T05:57:03.079Z,97.7
2019-03-12T05:58:03.755Z,98.2
2019-03-12T05:59:02.906Z,98.4
2019-03-12T06:00:03.717Z,98
2019-03-12T06:01:03.577Z,98.4
2019-03-12T06:02:03.978Z,97.7
2019-03-12T06:03:02.885Z,96.8
2019-03-12T06:04:03.524Z,97.7
2019-03-12T06:05:03.531Z,98.2
2019-03-12T06:06:03.488Z,99.4
2019-03-12T06:07:03.945Z,97.7
2019-03-12T06:08:02.784Z,97
2019-03-12T06:09:02.724Z,96.8
2019-03-12T06:10:03.856Z,96.1
2019-03-12T06:11:03.615Z,96.3
2019-03-12T06:12:03.531Z,95.4
2019-03-12T06:13:03.630Z,96.6
2019-03-12T06:14:03.585Z,95.2
2019-03-12T06:15:03.480Z,96.3
2019-03-12T06:16:03.492Z,94.9
2019-03-12T06:17:03.140Z,96.1
2019-03-12T06:18:03.352Z,94.5
2019-03-12T06:19:03.158Z,93.8
2019-03-12T06:20:03.142Z,95.2
2019-03-12T06:21:03.356Z,94
2019-03-12T06:22:03.234Z,93.3
2019-03-12T06:23:03.022Z,94
2019-03-12T06:24:03.439Z,92.8
2019-03-12T06:25:03.928Z,92.6
2019-03-12T06:26:02.915Z,94.2
2019-03-12T06:27:03.293Z,93.5
2019-03-12T06:28:03.006Z,93.1
2019-03-12T06:29:03.030Z,94
2019-03-12T06:30:03.100Z,92.8
2019-03-12T06:31:03.106Z,93.8
2019-03-12T06:32:03.456Z,92.8
2019-03-12T06:33:03.017Z,91.2
2019-03-12T06:34:02.972Z,90.7
2019-03-12T06:35:02.704Z,89.6
2019-03-12T06:36:02.952Z,90.3
2019-03-12T06:37:03.023Z,89.6
2019-03-12T06:38:02.914Z,87.5
2019-03-12T06:39:03.660Z,87.5
2019-03-12T06:40:02.878Z,87.5
2019-03-12T06:41:02.916Z,87
2019-03-12T06:42:02.923Z,86.3
2019-03-12T06:43:03.669Z,87.5
2019-03-12T06:44:03.043Z,86.3
2019-03-12T06:45:02.705Z,88.4
2019-03-12T06:46:03.760Z,86.1
2019-03-12T06:47:03.703Z,87.5
2019-03-12T06:48:03.883Z,87.2
2019-03-12T06:49:03.370Z,87.2
2019-03-12T06:50:03.829Z,86.3
2019-03-12T06:51:03.720Z,84.9
2019-03-12T06:52:02.879Z,84.7
2019-03-12T06:53:03.271Z,85.6
2019-03-12T06:54:03.711Z,86.8
2019-03-12T06:55:03.867Z,86.5
2019-03-12T06:56:03.158Z,87
2019-03-12T06:57:03.187Z,87.7
2019-03-12T06:58:03.524Z,87
2019-03-12T06:59:03.348Z,85.8
2019-03-12T07:00:03.415Z,85.4
2019-03-12T07:01:03.316Z,86.1
2019-03-12T07:02:03.066Z,86.1
2019-03-12T07:03:03.571Z,86.8
2019-03-12T07:04:03.314Z,84.9
2019-03-12T07:05:03.342Z,86.5
2019-03-12T07:06:03.720Z,85.8
2019-03-12T07:07:13.027Z,86.5
2019-03-12T07:08:06.719Z,85.8
2019-03-12T07:09:03.258Z,85.8
2019-03-12T07:10:03.110Z,85.6
2019-03-12T07:11:02.989Z,86.3
2019-03-12T07:12:03.052Z,85.1
2019-03-12T07:13:03.787Z,84.7
2019-03-12T07:14:02.916Z,84.2
2019-03-12T07:15:03.414Z,83.7
2019-03-12T07:16:02.786Z,84.2
2019-03-12T07:17:02.901Z,84.9
2019-03-12T07:18:03.000Z,83.5
2019-03-12T07:19:04.027Z,83.5
2019-03-12T07:20:03.851Z,84.2
2019-03-12T07:21:03.736Z,83
2019-03-12T07:22:03.074Z,82.8
2019-03-12T07:23:03.699Z,82.6
2019-03-12T07:24:03.386Z,82.3
2019-03-12T07:25:03.608Z,82.3
2019-03-12T07:26:03.787Z,84.2
2019-03-12T07:27:03.696Z,82.6
2019-03-12T07:28:03.610Z,82.6
2019-03-12T07:29:03.442Z,82.1
2019-03-12T07:30:03.532Z,84.7
2019-03-12T07:31:03.735Z,80.5
2019-03-12T07:32:03.350Z,83.7
2019-03-12T07:33:03.504Z,82.8
2019-03-12T07:34:03.482Z,84.9
2019-03-12T07:35:03.389Z,85.4
2019-03-12T07:36:03.382Z,86.3
2019-03-12T07:37:03.084Z,85.4
2019-03-12T07:38:02.971Z,86.3
2019-03-12T07:39:03.363Z,86.1
2019-03-12T07:40:02.958Z,86.8
2019-03-12T07:41:02.847Z,85.6
2019-03-12T07:42:03.416Z,84.7
2019-03-12T07:43:02.868Z,85.1
2019-03-12T07:44:03.202Z,84.9
2019-03-12T07:45:03.136Z,85.4
2019-03-12T07:46:03.508Z,84.4
2019-03-12T07:47:03.331Z,84.4
2019-03-12T07:48:02.918Z,83.5
2019-03-12T07:49:02.799Z,85.4
2019-03-12T07:50:03.299Z,84.9
2019-03-12T07:51:02.994Z,88.2
2019-03-12T07:52:02.948Z,86.3
2019-03-12T07:53:03.319Z,89.1
2019-03-12T07:54:02.579Z,88.2
2019-03-12T07:55:03.967Z,89.8
2019-03-12T07:56:02.727Z,88.9
2019-03-12T07:57:03.203Z,90
2019-03-12T07:58:02.937Z,90.3
2019-03-12T07:59:03.224Z,89.8
2019-03-12T08:00:03.214Z,91
2019-03-12T08:01:03.145Z,91.4
2019-03-12T08:02:03.018Z,92.6
2019-03-12T08:03:03.684Z,91.7
2019-03-12T08:04:02.845Z,92.1
2019-03-12T08:05:03.804Z,90.5
2019-03-12T08:06:03.811Z,91
2019-03-12T08:07:03.752Z,89.6
2019-03-12T08:08:03.261Z,90.5
2019-03-12T08:09:03.583Z,89.8
2019-03-12T08:10:04.048Z,91
2019-03-12T08:11:03.508Z,90.7
2019-03-12T08:12:03.743Z,91.2
2019-03-12T08:13:03.672Z,92.1
2019-03-12T08:14:03.410Z,91.9
2019-03-12T08:15:03.325Z,91.9
2019-03-12T08:16:03.007Z,92.6
2019-03-12T08:17:03.610Z,92.1
2019-03-12T08:18:03.542Z,92.1
2019-03-12T08:19:02.939Z,92.1
2019-03-12T08:20:03.498Z,93.8
2019-03-12T08:21:03.640Z,92.6
2019-03-12T08:22:03.479Z,94.2
2019-03-12T08:23:03.280Z,92.8
2019-03-12T08:24:03.321Z,93.5
2019-03-12T08:25:03.413Z,91.9
2019-03-12T08:26:03.329Z,94
2019-03-12T08:27:03.331Z,91.4
2019-03-12T08:28:03.218Z,93.5
2019-03-12T08:29:03.146Z,93.5
2019-03-12T08:30:03.323Z,94.7
2019-03-12T08:31:03.094Z,92.6
2019-03-12T08:32:03.239Z,93.1
2019-03-12T08:33:02.927Z,93.5
2019-03-12T08:34:03.157Z,92.4
2019-03-12T08:35:02.975Z,92.4
2019-03-12T08:36:03.048Z,91.9
2019-03-12T08:37:03.015Z,92.4
2019-03-12T08:38:02.966Z,92.8
2019-03-12T08:39:03.912Z,92.4
2019-03-12T08:40:03.165Z,93.5
2019-03-12T08:41:03.102Z,92.8
2019-03-12T08:42:03.774Z,92.6
2019-03-12T08:43:03.829Z,92.1
2019-03-12T08:44:03.771Z,92.1
2019-03-12T08:45:03.747Z,91.4
2019-03-12T08:46:03.315Z,91.7
2019-03-12T08:47:03.309Z,91.9
2019-03-12T08:48:03.645Z,91.4
2019-03-12T08:49:04.373Z,91.4
2019-03-12T08:50:03.522Z,89.8
2019-03-12T08:51:05.848Z,89.3
2019-03-12T08:52:03.377Z,87.2
2019-03-12T08:53:03.699Z,86.3
2019-03-12T08:54:02.848Z,85.1
2019-03-12T08:55:04.699Z,84.4
2019-03-12T08:56:03.187Z,84.2
2019-03-12T08:57:03.637Z,83
2019-03-12T08:58:03.663Z,82.3
2019-03-12T08:59:03.607Z,83.5
2019-03-12T09:00:03.669Z,81.4
2019-03-12T09:01:03.558Z,83.3
2019-03-12T09:02:03.794Z,82.1
2019-03-12T09:03:03.512Z,82.1
2019-03-12T09:04:03.139Z,83
2019-03-12T09:05:03.741Z,82.3
2019-03-12T09:06:03.389Z,83
2019-03-12T09:07:05.628Z,82.6
2019-03-12T09:08:03.473Z,84.2
2019-03-12T09:09:03.313Z,82.6
2019-03-12T09:10:03.574Z,81.6
2019-03-12T09:11:03.296Z,83
2019-03-12T09:12:03.362Z,82.1
2019-03-12T09:13:03.430Z,84.7
2019-03-12T09:14:03.458Z,82.8
2019-03-12T09:15:03.112Z,84.2
2019-03-12T09:16:03.513Z,82.8
2019-03-12T09:17:03.158Z,83.7
2019-03-12T09:18:03.727Z,82.8
2019-03-12T09:19:03.294Z,83
2019-03-12T09:20:03.116Z,82.3
2019-03-12T09:21:03.264Z,81.2
2019-03-12T09:22:03.322Z,81.4
2019-03-12T09:23:03.176Z,80.9
2019-03-12T09:24:03.159Z,82.3
2019-03-12T09:25:03.202Z,82.3
2019-03-12T09:26:02.925Z,82.3
2019-03-12T09:27:03.212Z,82.1
2019-03-12T09:28:02.855Z,82.1
2019-03-12T09:29:03.240Z,82.1
2019-03-12T09:30:03.587Z,80.5
2019-03-12T09:31:02.963Z,80.7
2019-03-12T09:32:03.819Z,81.2
2019-03-12T09:33:02.873Z,81.2
2019-03-12T09:34:03.562Z,80.5
2019-03-12T09:35:03.448Z,80.9
2019-03-12T09:36:03.300Z,80
2019-03-12T09:37:03.270Z,81.6
2019-03-12T09:38:11.058Z,81.4
2019-03-12T09:39:03.867Z,80.2
2019-03-12T09:40:03.079Z,80.5
2019-03-12T09:41:03.705Z,80.7
2019-03-12T09:42:03.007Z,80.9
2019-03-12T09:43:02.948Z,79.8
2019-03-12T09:44:02.879Z,81.4
2019-03-12T09:45:03.874Z,80.5
2019-03-12T09:46:03.708Z,80.9
2019-03-12T09:47:02.872Z,81.4
2019-03-12T09:48:03.614Z,80.2
2019-03-12T09:49:03.631Z,80.9
2019-03-12T09:50:03.409Z,79.5
2019-03-12T09:51:03.816Z,81.6
2019-03-12T09:52:03.505Z,81.4
2019-03-12T09:53:03.736Z,82.6
2019-03-12T09:54:03.498Z,81.6
2019-03-12T09:55:05.325Z,83.3
2019-03-12T09:56:03.692Z,81.6
2019-03-12T09:57:03.575Z,82.1
2019-03-12T09:58:03.566Z,82.1
2019-03-12T09:59:03.426Z,82.8
2019-03-12T10:00:17.091Z,81.4
2019-03-12T10:01:03.786Z,82.3
2019-03-12T10:02:03.793Z,81.4
2019-03-12T10:03:03.628Z,81.6
2019-03-12T10:04:03.707Z,82.6
2019-03-12T10:05:03.490Z,81.9
2019-03-12T10:06:03.630Z,83.5
2019-03-12T10:07:03.892Z,84.7
2019-03-12T10:08:03.680Z,85.1
2019-03-12T10:09:03.684Z,85.8
2019-03-12T10:10:03.237Z,84.7
2019-03-12T10:11:03.572Z,86.3
2019-03-12T10:12:02.910Z,87.2
2019-03-12T10:13:03.580Z,85.6
2019-03-12T10:14:03.609Z,86.1
2019-03-12T10:15:03.360Z,85.1
2019-03-12T10:16:03.467Z,85.8
2019-03-12T10:17:03.554Z,86.3
2019-03-12T10:18:03.295Z,85.8
2019-03-12T10:19:03.279Z,87.5
2019-03-12T10:20:03.105Z,88.4
2019-03-12T10:21:03.299Z,89.6
2019-03-12T10:22:03.250Z,91
2019-03-12T10:23:02.674Z,92.6
2019-03-12T10:24:03.369Z,91.4
2019-03-12T10:25:03.372Z,91.9
2019-03-12T10:26:03.118Z,91.7
2019-03-12T10:27:03.158Z,91.9
2019-03-12T10:28:02.966Z,92.1
2019-03-12T10:29:02.920Z,92.4
2019-03-12T10:30:02.963Z,93.3
2019-03-12T10:31:02.899Z,92.6
2019-03-12T10:32:02.850Z,93.8
2019-03-12T10:33:02.979Z,93.1
2019-03-12T10:34:03.000Z,93.3
2019-03-12T10:35:03.145Z,93.1
2019-03-12T10:36:03.946Z,92.4
2019-03-12T10:37:16.821Z,93.5
2019-03-12T10:38:02.819Z,92.8
2019-03-12T10:39:03.550Z,92.4
2019-03-12T10:40:02.774Z,92.6
2019-03-12T10:41:03.634Z,92.4
2019-03-12T10:42:03.853Z,92.4
2019-03-12T10:43:02.042Z,92.4
2019-03-12T10:44:03.216Z,92.6
2019-03-12T10:45:04.001Z,91.7
2019-03-12T10:46:03.692Z,92.6
2019-03-12T10:47:03.671Z,92.4
2019-03-12T10:48:03.760Z,94.7
2019-03-12T10:49:03.904Z,92.8
2019-03-12T10:50:03.765Z,94.2
2019-03-12T10:51:02.730Z,94.9
2019-03-12T10:52:03.581Z,94.2
2019-03-12T10:53:03.419Z,95.6
2019-03-12T10:54:03.497Z,93.3
2019-03-12T10:55:14.393Z,97
2019-03-12T10:56:03.403Z,94.9
2019-03-12T10:57:03.612Z,97.3
2019-03-12T10:58:03.407Z,96.3
2019-03-12T10:59:03.491Z,97.5
2019-03-12T11:00:03.943Z,99.4
2019-03-12T11:01:03.331Z,98.4
2019-03-12T11:02:03.761Z,99.1
2019-03-12T11:03:03.374Z,98
2019-03-12T11:04:03.226Z,99.4
2019-03-12T11:05:03.862Z,99.4
2019-03-12T11:06:03.624Z,98.4
2019-03-12T11:07:17.241Z,100.3
2019-03-12T11:08:07.323Z,98.7
2019-03-12T11:09:03.390Z,98
2019-03-12T11:10:03.274Z,98.9
2019-03-12T11:11:03.136Z,96.3
2019-03-12T11:12:03.802Z,98
2019-03-12T11:13:03.738Z,97.5
2019-03-12T11:14:03.085Z,98
2019-03-12T11:15:03.554Z,98.9
2019-03-12T11:16:03.311Z,101.7
2019-03-12T11:17:03.544Z,100.1
2019-03-12T11:18:03.335Z,100.8
2019-03-12T11:19:03.267Z,100.1
2019-03-12T11:20:03.258Z,100.3
2019-03-12T11:21:03.167Z,98.4
2019-03-12T11:22:03.425Z,99.8
2019-03-12T11:23:03.231Z,98.4
2019-03-12T11:24:03.156Z,98.2
2019-03-12T11:25:03.313Z,98.2
2019-03-12T11:26:03.475Z,98.2
2019-03-12T11:27:02.816Z,98.9
2019-03-12T11:28:02.893Z,97.7
2019-03-12T11:29:02.743Z,97.5
2019-03-12T11:30:03.379Z,99.1
2019-03-12T11:31:04.005Z,99.1
2019-03-12T11:32:03.668Z,99.1
2019-03-12T11:33:03.460Z,98.2
2019-03-12T11:34:03.723Z,101.2
2019-03-12T11:35:03.526Z,101.2
2019-03-12T11:36:03.607Z,100.8
2019-03-12T11:37:03.578Z,102.6
2019-03-12T11:38:03.544Z,101.7
2019-03-12T11:39:03.785Z,102.6
2019-03-12T11:40:04.116Z,102.6
2019-03-12T11:41:03.941Z,102.6
2019-03-12T11:42:03.846Z,101.2
2019-03-12T11:43:03.544Z,102.6
2019-03-12T11:44:03.334Z,101.2
2019-03-12T11:45:34.765Z,101
2019-03-12T11:46:03.636Z,101.7
2019-03-12T11:47:03.870Z,101
2019-03-12T11:48:03.604Z,101.9
2019-03-12T11:49:03.259Z,100.5
2019-03-12T11:50:03.540Z,100.3
2019-03-12T11:51:03.511Z,101.5
2019-03-12T11:52:03.334Z,101.5
2019-03-12T11:53:03.845Z,100.8
2019-03-12T11:54:04.118Z,100.1
2019-03-12T11:55:03.479Z,100.1
2019-03-12T11:56:03.649Z,99.8
2019-03-12T11:57:03.209Z,99.6
2019-03-12T11:58:03.437Z,98.7
2019-03-12T11:59:02.785Z,96.8
2019-03-12T12:00:03.480Z,98
2019-03-12T12:01:04.319Z,98.4
2019-03-12T12:02:03.058Z,98.4
2019-03-12T12:03:02.975Z,98.2
2019-03-12T12:04:03.428Z,98.9
2019-03-12T12:05:03.032Z,98.2
2019-03-12T12:06:03.183Z,98.4
2019-03-12T12:07:02.994Z,98.2
2019-03-12T12:08:03.436Z,98.2
2019-03-12T12:09:03.998Z,98.4
2019-03-12T12:10:03.192Z,99.8
2019-03-12T12:11:03.112Z,97.5
2019-03-12T12:12:02.882Z,98.9
2019-03-12T12:13:03.964Z,98.2
2019-03-12T12:14:02.861Z,98.4
2019-03-12T12:15:03.735Z,97.5
2019-03-12T12:16:03.995Z,97.5
2019-03-12T12:17:03.573Z,95.9
2019-03-12T12:18:03.663Z,94.5
2019-03-12T12:19:02.870Z,95.9
2019-03-12T12:20:03.511Z,96.1
2019-03-12T12:21:03.651Z,95.9
2019-03-12T12:22:03.605Z,95.9
2019-03-12T12:23:03.470Z,96.3
2019-03-12T12:24:03.398Z,96.3
2019-03-12T12:25:03.855Z,95.9
2019-03-12T12:26:03.459Z,96.1
2019-03-12T12:27:03.335Z,96.8
2019-03-12T12:28:03.687Z,95.6
2019-03-12T12:29:03.699Z,96.6
2019-03-12T12:30:03.638Z,97.5
2019-03-12T12:31:03.075Z,97.3
2019-03-12T12:32:03.724Z,94.7
2019-03-12T12:33:03.446Z,92.4
2019-03-12T12:34:03.501Z,93.8
2019-03-12T12:35:03.542Z,94.2
2019-03-12T12:36:03.508Z,91.7
2019-03-12T12:37:04.024Z,92.4
2019-03-12T12:38:03.157Z,91.7
2019-03-12T12:39:03.303Z,90.5
2019-03-12T12:40:02.997Z,91.9
2019-03-12T12:41:03.124Z,91.9
2019-03-12T12:42:03.181Z,91
2019-03-12T12:43:03.552Z,93.3
2019-03-12T12:44:02.882Z,93.3
2019-03-12T12:45:03.473Z,92.6
2019-03-12T12:46:03.098Z,93.8
2019-03-12T12:47:02.899Z,92.6
2019-03-12T12:48:02.970Z,93.8
2019-03-12T12:49:03.210Z,92.8
2019-03-12T12:50:02.718Z,92.6
2019-03-12T12:51:04.280Z,92.8
2019-03-12T12:52:03.396Z,93.1
2019-03-12T12:53:02.769Z,91.9
2019-03-12T12:54:03.008Z,91.2
2019-03-12T12:55:03.081Z,91.2
2019-03-12T12:56:03.851Z,93.1
2019-03-12T12:57:02.789Z,91.4
2019-03-12T12:58:03.041Z,94.2
2019-03-12T12:59:03.119Z,95.2
2019-03-12T13:00:03.663Z,94
2019-03-12T13:01:03.731Z,94
2019-03-12T13:02:02.896Z,92.8
2019-03-12T13:03:03.053Z,93.1
2019-03-12T13:04:03.026Z,92.4
2019-03-12T13:05:03.191Z,92.1
2019-03-12T13:06:03.119Z,92.8
2019-03-12T13:07:03.122Z,93.1
2019-03-12T13:08:02.900Z,93.3
2019-03-12T13:09:02.873Z,94
2019-03-12T13:10:03.238Z,94.2
2019-03-12T13:11:03.620Z,92.8
2019-03-12T13:12:03.543Z,94
2019-03-12T13:13:03.610Z,94.9
2019-03-12T13:14:03.814Z,92.4
2019-03-12T13:15:03.479Z,93.5
2019-03-12T13:16:03.109Z,92.8
2019-03-12T13:17:03.658Z,93.3
2019-03-12T13:18:02.995Z,94
2019-03-12T13:19:02.528Z,94.2
2019-03-12T13:20:02.874Z,94.5
2019-03-12T13:21:02.980Z,94
2019-03-12T13:22:03.684Z,93.8